sensor_id;sensor_type;location;lat;lon;timestamp;P1;durP1;ratioP1;P2;durP2;ratioP2
60730;SDS011;46580;52.114;11.674;2023-02-15T00:00:15;34.57;;;17.57;;
60730;SDS011;46580;52.114;11.674;2023-02-15T00:02:41;33.47;;;17.87;;
60730;SDS011;46580;52.114;11.674;2023-02-15T00:05:06;33.63;;;16.73;;
60730;SDS011;46580;52.114;11.674;2023-02-15T00:07:32;31.73;;;16.60;;
60730;SDS011;46580;52.114;11.674;2023-02-15T00:09:58;31.10;;;16.80;;
60730;SDS011;46580;52.114;11.674;2023-02-15T00:12:23;34.63;;;17.60;;
60730;SDS011;46580;52.114;11.674;2023-02-15T00:14:48;31.33;;;16.17;;
60730;SDS011;46580;52.114;11.674;2023-02-15T00:17:14;32.97;;;15.93;;
60730;SDS011;46580;52.114;11.674;2023-02-15T00:19:39;33.73;;;17.20;;
60730;SDS011;46580;52.114;11.674;2023-02-15T00:22:05;37.30;;;17.03;;
60730;SDS011;46580;52.114;11.674;2023-02-15T00:24:30;37.03;;;17.13;;
60730;SDS011;46580;52.114;11.674;2023-02-15T00:26:56;31.50;;;17.30;;
60730;SDS011;46580;52.114;11.674;2023-02-15T00:29:21;31.67;;;16.40;;
60730;SDS011;46580;52.114;11.674;2023-02-15T00:31:47;35.10;;;16.40;;
60730;SDS011;46580;52.114;11.674;2023-02-15T00:36:40;30.13;;;16.47;;
60730;SDS011;46580;52.114;11.674;2023-02-15T00:39:06;29.87;;;15.27;;
60730;SDS011;46580;52.114;11.674;2023-02-15T00:41:32;34.90;;;16.63;;
60730;SDS011;46580;52.114;11.674;2023-02-15T00:43:57;34.67;;;16.73;;
60730;SDS011;46580;52.114;11.674;2023-02-15T00:46:23;35.63;;;15.87;;
60730;SDS011;46580;52.114;11.674;2023-02-15T00:48:48;33.77;;;16.33;;
60730;SDS011;46580;52.114;11.674;2023-02-15T00:51:14;38.40;;;17.67;;
60730;SDS011;46580;52.114;11.674;2023-02-15T00:53:39;31.07;;;16.40;;
60730;SDS011;46580;52.114;11.674;2023-02-15T00:56:04;36.63;;;16.90;;
60730;SDS011;46580;52.114;11.674;2023-02-15T00:58:31;36.17;;;17.23;;
60730;SDS011;46580;52.114;11.674;2023-02-15T01:01:02;33.77;;;16.53;;
60730;SDS011;46580;52.114;11.674;2023-02-15T01:03:28;27.63;;;14.87;;
60730;SDS011;46580;52.114;11.674;2023-02-15T01:05:55;32.03;;;16.47;;
60730;SDS011;46580;52.114;11.674;2023-02-15T01:08:20;38.80;;;17.37;;
60730;SDS011;46580;52.114;11.674;2023-02-15T01:10:45;31.60;;;16.40;;
60730;SDS011;46580;52.114;11.674;2023-02-15T01:13:12;35.03;;;16.40;;
60730;SDS011;46580;52.114;11.674;2023-02-15T01:15:38;34.40;;;15.83;;
60730;SDS011;46580;52.114;11.674;2023-02-15T01:18:05;26.63;;;14.97;;
60730;SDS011;46580;52.114;11.674;2023-02-15T01:20:33;30.77;;;15.03;;
60730;SDS011;46580;52.114;11.674;2023-02-15T01:23:01;33.20;;;17.47;;
60730;SDS011;46580;52.114;11.674;2023-02-15T01:25:27;33.67;;;16.53;;
60730;SDS011;46580;52.114;11.674;2023-02-15T01:27:53;35.87;;;16.40;;
60730;SDS011;46580;52.114;11.674;2023-02-15T01:30:18;38.50;;;17.03;;
60730;SDS011;46580;52.114;11.674;2023-02-15T01:32:43;31.37;;;16.27;;
60730;SDS011;46580;52.114;11.674;2023-02-15T01:35:09;34.47;;;17.47;;
60730;SDS011;46580;52.114;11.674;2023-02-15T01:37:35;34.30;;;17.20;;
60730;SDS011;46580;52.114;11.674;2023-02-15T01:40:02;28.80;;;16.40;;
60730;SDS011;46580;52.114;11.674;2023-02-15T01:42:29;28.60;;;15.03;;
60730;SDS011;46580;52.114;11.674;2023-02-15T01:44:59;32.30;;;15.97;;
60730;SDS011;46580;52.114;11.674;2023-02-15T01:47:36;33.43;;;16.70;;
60730;SDS011;46580;52.114;11.674;2023-02-15T01:50:07;34.93;;;16.43;;
60730;SDS011;46580;52.114;11.674;2023-02-15T01:55:20;30.80;;;17.47;;
60730;SDS011;46580;52.114;11.674;2023-02-15T01:57:48;33.67;;;18.03;;
60730;SDS011;46580;52.114;11.674;2023-02-15T02:00:15;33.27;;;15.93;;
60730;SDS011;46580;52.114;11.674;2023-02-15T02:02:42;37.47;;;18.37;;
60730;SDS011;46580;52.114;11.674;2023-02-15T02:05:10;32.27;;;16.87;;
60730;SDS011;46580;52.114;11.674;2023-02-15T02:07:37;31.60;;;16.07;;
60730;SDS011;46580;52.114;11.674;2023-02-15T02:10:09;33.63;;;17.10;;
60730;SDS011;46580;52.114;11.674;2023-02-15T02:12:39;33.63;;;16.57;;
60730;SDS011;46580;52.114;11.674;2023-02-15T02:15:09;31.43;;;17.00;;
60730;SDS011;46580;52.114;11.674;2023-02-15T02:17:40;35.90;;;17.33;;
60730;SDS011;46580;52.114;11.674;2023-02-15T02:28:35;34.90;;;17.17;;
60730;SDS011;46580;52.114;11.674;2023-02-15T02:39:49;32.97;;;16.23;;
60730;SDS011;46580;52.114;11.674;2023-02-15T02:42:34;34.93;;;15.87;;
60730;SDS011;46580;52.114;11.674;2023-02-15T02:45:19;36.83;;;18.10;;
60730;SDS011;46580;52.114;11.674;2023-02-15T02:47:58;33.97;;;16.30;;
60730;SDS011;46580;52.114;11.674;2023-02-15T02:50:29;32.80;;;16.83;;
60730;SDS011;46580;52.114;11.674;2023-02-15T02:52:55;32.97;;;16.37;;
60730;SDS011;46580;52.114;11.674;2023-02-15T02:55:27;34.87;;;17.00;;
60730;SDS011;46580;52.114;11.674;2023-02-15T02:57:57;32.63;;;16.93;;
60730;SDS011;46580;52.114;11.674;2023-02-15T03:00:29;33.80;;;16.93;;
60730;SDS011;46580;52.114;11.674;2023-02-15T03:03:02;33.00;;;16.70;;
60730;SDS011;46580;52.114;11.674;2023-02-15T03:05:34;39.53;;;18.70;;
60730;SDS011;46580;52.114;11.674;2023-02-15T03:08:04;32.47;;;16.97;;
60730;SDS011;46580;52.114;11.674;2023-02-15T03:10:31;37.60;;;17.27;;
60730;SDS011;46580;52.114;11.674;2023-02-15T03:12:59;31.27;;;16.70;;
60730;SDS011;46580;52.114;11.674;2023-02-15T03:15:26;31.50;;;16.47;;
60730;SDS011;46580;52.114;11.674;2023-02-15T03:18:25;29.50;;;16.73;;
60730;SDS011;46580;52.114;11.674;2023-02-15T03:20:56;34.87;;;17.07;;
60730;SDS011;46580;52.114;11.674;2023-02-15T03:23:25;29.10;;;15.53;;
60730;SDS011;46580;52.114;11.674;2023-02-15T03:25:57;34.43;;;17.23;;
60730;SDS011;46580;52.114;11.674;2023-02-15T03:28:31;31.00;;;17.40;;
60730;SDS011;46580;52.114;11.674;2023-02-15T03:31:04;35.83;;;18.07;;
60730;SDS011;46580;52.114;11.674;2023-02-15T03:33:32;41.20;;;17.97;;
60730;SDS011;46580;52.114;11.674;2023-02-15T03:38:34;37.07;;;17.33;;
60730;SDS011;46580;52.114;11.674;2023-02-15T03:41:09;38.63;;;18.00;;
60730;SDS011;46580;52.114;11.674;2023-02-15T03:49:13;36.70;;;18.23;;
60730;SDS011;46580;52.114;11.674;2023-02-15T03:51:40;41.23;;;18.83;;
60730;SDS011;46580;52.114;11.674;2023-02-15T03:54:08;32.73;;;17.10;;
60730;SDS011;46580;52.114;11.674;2023-02-15T03:56:39;39.63;;;18.93;;
60730;SDS011;46580;52.114;11.674;2023-02-15T03:59:06;38.23;;;18.03;;
60730;SDS011;46580;52.114;11.674;2023-02-15T04:04:22;32.07;;;17.03;;
60730;SDS011;46580;52.114;11.674;2023-02-15T04:07:08;32.03;;;16.60;;
60730;SDS011;46580;52.114;11.674;2023-02-15T04:09:35;33.53;;;17.43;;
60730;SDS011;46580;52.114;11.674;2023-02-15T04:12:19;35.07;;;17.03;;
60730;SDS011;46580;52.114;11.674;2023-02-15T04:14:45;37.50;;;16.83;;
60730;SDS011;46580;52.114;11.674;2023-02-15T04:17:29;29.57;;;16.73;;
60730;SDS011;46580;52.114;11.674;2023-02-15T04:19:54;33.93;;;17.17;;
60730;SDS011;46580;52.114;11.674;2023-02-15T04:22:38;30.20;;;15.47;;
60730;SDS011;46580;52.114;11.674;2023-02-15T04:25:21;33.00;;;15.77;;
60730;SDS011;46580;52.114;11.674;2023-02-15T04:27:49;33.37;;;16.60;;
60730;SDS011;46580;52.114;11.674;2023-02-15T04:30:18;39.73;;;18.20;;
60730;SDS011;46580;52.114;11.674;2023-02-15T04:32:45;31.97;;;16.87;;
60730;SDS011;46580;52.114;11.674;2023-02-15T04:35:11;37.13;;;18.37;;
60730;SDS011;46580;52.114;11.674;2023-02-15T04:37:38;40.10;;;18.03;;
60730;SDS011;46580;52.114;11.674;2023-02-15T04:40:05;35.70;;;16.97;;
60730;SDS011;46580;52.114;11.674;2023-02-15T04:42:31;35.97;;;19.23;;
60730;SDS011;46580;52.114;11.674;2023-02-15T04:44:57;37.40;;;18.03;;
60730;SDS011;46580;52.114;11.674;2023-02-15T04:47:22;39.60;;;20.17;;
60730;SDS011;46580;52.114;11.674;2023-02-15T04:49:49;42.87;;;19.87;;
60730;SDS011;46580;52.114;11.674;2023-02-15T04:52:15;40.87;;;18.90;;
60730;SDS011;46580;52.114;11.674;2023-02-15T04:54:42;39.80;;;19.10;;
60730;SDS011;46580;52.114;11.674;2023-02-15T04:57:07;36.60;;;18.97;;
60730;SDS011;46580;52.114;11.674;2023-02-15T04:59:33;44.03;;;22.63;;
60730;SDS011;46580;52.114;11.674;2023-02-15T05:01:58;46.30;;;21.97;;
60730;SDS011;46580;52.114;11.674;2023-02-15T05:04:25;50.77;;;22.67;;
60730;SDS011;46580;52.114;11.674;2023-02-15T05:06:50;52.23;;;23.87;;
60730;SDS011;46580;52.114;11.674;2023-02-15T05:09:16;52.23;;;23.63;;
60730;SDS011;46580;52.114;11.674;2023-02-15T05:11:41;52.67;;;24.67;;
60730;SDS011;46580;52.114;11.674;2023-02-15T05:14:07;60.43;;;25.77;;
60730;SDS011;46580;52.114;11.674;2023-02-15T05:16:33;47.57;;;23.50;;
60730;SDS011;46580;52.114;11.674;2023-02-15T05:18:59;51.87;;;22.80;;
60730;SDS011;46580;52.114;11.674;2023-02-15T05:21:24;67.00;;;26.13;;
60730;SDS011;46580;52.114;11.674;2023-02-15T05:23:50;61.53;;;23.27;;
60730;SDS011;46580;52.114;11.674;2023-02-15T05:26:18;54.03;;;23.23;;
60730;SDS011;46580;52.114;11.674;2023-02-15T05:29:04;72.63;;;24.47;;
60730;SDS011;46580;52.114;11.674;2023-02-15T05:31:30;73.83;;;24.47;;
60730;SDS011;46580;52.114;11.674;2023-02-15T05:33:55;66.87;;;25.07;;
60730;SDS011;46580;52.114;11.674;2023-02-15T05:36:21;51.13;;;23.50;;
60730;SDS011;46580;52.114;11.674;2023-02-15T05:38:46;50.87;;;23.13;;
60730;SDS011;46580;52.114;11.674;2023-02-15T05:41:11;60.90;;;22.30;;
60730;SDS011;46580;52.114;11.674;2023-02-15T05:43:37;48.70;;;22.17;;
60730;SDS011;46580;52.114;11.674;2023-02-15T05:46:03;74.60;;;25.37;;
60730;SDS011;46580;52.114;11.674;2023-02-15T05:48:29;46.13;;;21.37;;
60730;SDS011;46580;52.114;11.674;2023-02-15T05:50:59;49.13;;;20.97;;
60730;SDS011;46580;52.114;11.674;2023-02-15T05:53:37;81.70;;;24.23;;
60730;SDS011;46580;52.114;11.674;2023-02-15T05:56:04;59.63;;;23.60;;
60730;SDS011;46580;52.114;11.674;2023-02-15T05:58:32;43.57;;;20.50;;
60730;SDS011;46580;52.114;11.674;2023-02-15T06:00:59;71.27;;;25.17;;
60730;SDS011;46580;52.114;11.674;2023-02-15T06:03:31;97.00;;;24.03;;
60730;SDS011;46580;52.114;11.674;2023-02-15T06:05:57;72.07;;;22.40;;
60730;SDS011;46580;52.114;11.674;2023-02-15T06:08:22;53.87;;;20.80;;
60730;SDS011;46580;52.114;11.674;2023-02-15T06:10:47;72.83;;;24.00;;
60730;SDS011;46580;52.114;11.674;2023-02-15T06:13:13;56.80;;;21.23;;
60730;SDS011;46580;52.114;11.674;2023-02-15T06:15:38;59.30;;;23.10;;
60730;SDS011;46580;52.114;11.674;2023-02-15T06:18:04;54.03;;;21.07;;
60730;SDS011;46580;52.114;11.674;2023-02-15T06:20:29;66.93;;;24.43;;
60730;SDS011;46580;52.114;11.674;2023-02-15T06:22:56;62.00;;;22.70;;
60730;SDS011;46580;52.114;11.674;2023-02-15T06:25:21;58.73;;;24.13;;
60730;SDS011;46580;52.114;11.674;2023-02-15T06:27:49;65.37;;;22.87;;
60730;SDS011;46580;52.114;11.674;2023-02-15T06:30:16;56.97;;;23.60;;
60730;SDS011;46580;52.114;11.674;2023-02-15T06:32:42;47.93;;;20.77;;
60730;SDS011;46580;52.114;11.674;2023-02-15T06:35:07;54.63;;;22.50;;
60730;SDS011;46580;52.114;11.674;2023-02-15T06:37:33;44.57;;;20.57;;
60730;SDS011;46580;52.114;11.674;2023-02-15T06:39:58;40.53;;;19.83;;
60730;SDS011;46580;52.114;11.674;2023-02-15T06:42:24;48.97;;;20.97;;
60730;SDS011;46580;52.114;11.674;2023-02-15T06:44:50;40.93;;;19.87;;
60730;SDS011;46580;52.114;11.674;2023-02-15T06:47:16;42.37;;;22.00;;
60730;SDS011;46580;52.114;11.674;2023-02-15T06:49:41;45.43;;;20.77;;
60730;SDS011;46580;52.114;11.674;2023-02-15T06:52:11;33.83;;;19.33;;
60730;SDS011;46580;52.114;11.674;2023-02-15T06:54:38;36.30;;;18.77;;
60730;SDS011;46580;52.114;11.674;2023-02-15T06:57:03;36.93;;;18.00;;
60730;SDS011;46580;52.114;11.674;2023-02-15T06:59:30;36.30;;;18.00;;
60730;SDS011;46580;52.114;11.674;2023-02-15T07:01:55;42.77;;;18.80;;
60730;SDS011;46580;52.114;11.674;2023-02-15T07:04:22;50.33;;;19.97;;
60730;SDS011;46580;52.114;11.674;2023-02-15T07:06:48;34.47;;;17.07;;
60730;SDS011;46580;52.114;11.674;2023-02-15T07:09:13;52.47;;;19.37;;
60730;SDS011;46580;52.114;11.674;2023-02-15T07:11:39;50.73;;;19.63;;
60730;SDS011;46580;52.114;11.674;2023-02-15T07:14:25;42.50;;;18.23;;
60730;SDS011;46580;52.114;11.674;2023-02-15T07:16:50;37.93;;;18.57;;
60730;SDS011;46580;52.114;11.674;2023-02-15T07:19:16;43.43;;;18.93;;
60730;SDS011;46580;52.114;11.674;2023-02-15T07:21:41;35.13;;;17.93;;
60730;SDS011;46580;52.114;11.674;2023-02-15T07:24:10;43.10;;;18.57;;
60730;SDS011;46580;52.114;11.674;2023-02-15T07:26:35;35.20;;;17.23;;
60730;SDS011;46580;52.114;11.674;2023-02-15T07:29:02;37.60;;;16.53;;
60730;SDS011;46580;52.114;11.674;2023-02-15T07:31:56;35.40;;;16.33;;
60730;SDS011;46580;52.114;11.674;2023-02-15T07:34:22;39.80;;;17.73;;
60730;SDS011;46580;52.114;11.674;2023-02-15T07:36:50;48.60;;;19.27;;
60730;SDS011;46580;52.114;11.674;2023-02-15T07:39:15;40.10;;;17.20;;
60730;SDS011;46580;52.114;11.674;2023-02-15T07:41:41;45.53;;;18.33;;
60730;SDS011;46580;52.114;11.674;2023-02-15T07:44:10;43.03;;;18.80;;
60730;SDS011;46580;52.114;11.674;2023-02-15T07:46:37;33.17;;;16.87;;
60730;SDS011;46580;52.114;11.674;2023-02-15T07:49:02;41.43;;;17.77;;
60730;SDS011;46580;52.114;11.674;2023-02-15T07:51:28;47.37;;;17.00;;
60730;SDS011;46580;52.114;11.674;2023-02-15T07:53:54;33.37;;;16.93;;
60730;SDS011;46580;52.114;11.674;2023-02-15T07:56:20;42.50;;;17.97;;
60730;SDS011;46580;52.114;11.674;2023-02-15T07:58:46;53.53;;;20.10;;
60730;SDS011;46580;52.114;11.674;2023-02-15T08:03:47;47.30;;;16.87;;
60730;SDS011;46580;52.114;11.674;2023-02-15T08:06:13;41.47;;;17.97;;
60730;SDS011;46580;52.114;11.674;2023-02-15T08:08:39;37.17;;;18.70;;
60730;SDS011;46580;52.114;11.674;2023-02-15T08:13:56;40.20;;;18.02;;
60730;SDS011;46580;52.114;11.674;2023-02-15T08:16:40;44.13;;;18.27;;
60730;SDS011;46580;52.114;11.674;2023-02-15T08:19:09;46.97;;;18.90;;
60730;SDS011;46580;52.114;11.674;2023-02-15T08:21:38;49.00;;;19.57;;
60730;SDS011;46580;52.114;11.674;2023-02-15T08:24:06;48.87;;;18.90;;
60730;SDS011;46580;52.114;11.674;2023-02-15T08:26:33;38.73;;;17.87;;
60730;SDS011;46580;52.114;11.674;2023-02-15T08:29:00;46.33;;;19.07;;
60730;SDS011;46580;52.114;11.674;2023-02-15T08:31:27;34.90;;;17.63;;
60730;SDS011;46580;52.114;11.674;2023-02-15T08:33:55;33.23;;;16.53;;
60730;SDS011;46580;52.114;11.674;2023-02-15T08:36:22;32.63;;;17.80;;
60730;SDS011;46580;52.114;11.674;2023-02-15T08:38:49;34.93;;;17.80;;
60730;SDS011;46580;52.114;11.674;2023-02-15T08:41:16;33.00;;;17.07;;
60730;SDS011;46580;52.114;11.674;2023-02-15T08:43:44;30.40;;;15.43;;
60730;SDS011;46580;52.114;11.674;2023-02-15T08:46:16;28.40;;;14.30;;
60730;SDS011;46580;52.114;11.674;2023-02-15T08:48:43;33.57;;;16.03;;
60730;SDS011;46580;52.114;11.674;2023-02-15T08:51:10;35.30;;;15.30;;
60730;SDS011;46580;52.114;11.674;2023-02-15T08:53:38;30.93;;;16.13;;
60730;SDS011;46580;52.114;11.674;2023-02-15T08:56:05;30.23;;;15.57;;
60730;SDS011;46580;52.114;11.674;2023-02-15T08:58:31;36.10;;;15.50;;
60730;SDS011;46580;52.114;11.674;2023-02-15T09:00:56;34.63;;;15.63;;
60730;SDS011;46580;52.114;11.674;2023-02-15T09:03:22;30.47;;;14.70;;
60730;SDS011;46580;52.114;11.674;2023-02-15T09:05:48;34.83;;;15.43;;
60730;SDS011;46580;52.114;11.674;2023-02-15T09:08:15;32.87;;;15.87;;
60730;SDS011;46580;52.114;11.674;2023-02-15T09:10:40;24.30;;;13.67;;
60730;SDS011;46580;52.114;11.674;2023-02-15T09:13:06;39.67;;;15.27;;
60730;SDS011;46580;52.114;11.674;2023-02-15T09:15:32;30.43;;;13.83;;
60730;SDS011;46580;52.114;11.674;2023-02-15T09:17:58;26.53;;;13.57;;
60730;SDS011;46580;52.114;11.674;2023-02-15T09:20:27;24.17;;;13.20;;
60730;SDS011;46580;52.114;11.674;2023-02-15T09:22:54;24.77;;;13.37;;
60730;SDS011;46580;52.114;11.674;2023-02-15T09:25:20;30.67;;;14.90;;
60730;SDS011;46580;52.114;11.674;2023-02-15T09:27:46;23.03;;;13.27;;
60730;SDS011;46580;52.114;11.674;2023-02-15T09:30:12;33.80;;;14.53;;
60730;SDS011;46580;52.114;11.674;2023-02-15T09:32:38;27.43;;;14.37;;
60730;SDS011;46580;52.114;11.674;2023-02-15T09:35:04;33.53;;;14.07;;
60730;SDS011;46580;52.114;11.674;2023-02-15T09:37:30;39.47;;;15.10;;
60730;SDS011;46580;52.114;11.674;2023-02-15T09:39:56;24.67;;;12.50;;
60730;SDS011;46580;52.114;11.674;2023-02-15T10:01:20;26.13;;;13.93;;
60730;SDS011;46580;52.114;11.674;2023-02-15T10:06:27;25.00;;;12.93;;
60730;SDS011;46580;52.114;11.674;2023-02-15T10:14:43;22.40;;;12.97;;
60730;SDS011;46580;52.114;11.674;2023-02-15T10:25:42;19.13;;;11.97;;
60730;SDS011;46580;52.114;11.674;2023-02-15T10:28:13;22.90;;;12.93;;
60730;SDS011;46580;52.114;11.674;2023-02-15T10:38:58;19.43;;;12.03;;
60730;SDS011;46580;52.114;11.674;2023-02-15T10:41:37;20.73;;;12.93;;
60730;SDS011;46580;52.114;11.674;2023-02-15T10:49:46;21.47;;;12.80;;
60730;SDS011;46580;52.114;11.674;2023-02-15T10:52:36;26.93;;;12.27;;
60730;SDS011;46580;52.114;11.674;2023-02-15T10:55:10;19.70;;;11.53;;
60730;SDS011;46580;52.114;11.674;2023-02-15T11:00:30;18.73;;;10.53;;
60730;SDS011;46580;52.114;11.674;2023-02-15T11:08:22;16.33;;;10.67;;
60730;SDS011;46580;52.114;11.674;2023-02-15T11:10:58;18.23;;;11.03;;
60730;SDS011;46580;52.114;11.674;2023-02-15T11:13:28;19.40;;;11.00;;
60730;SDS011;46580;52.114;11.674;2023-02-15T11:16:06;18.40;;;11.50;;
60730;SDS011;46580;52.114;11.674;2023-02-15T11:18:39;19.80;;;12.00;;
60730;SDS011;46580;52.114;11.674;2023-02-15T11:23:35;23.07;;;11.87;;
60730;SDS011;46580;52.114;11.674;2023-02-15T11:26:04;17.07;;;10.83;;
60730;SDS011;46580;52.114;11.674;2023-02-15T11:28:39;19.23;;;10.27;;
60730;SDS011;46580;52.114;11.674;2023-02-15T11:31:14;17.97;;;9.77;;
60730;SDS011;46580;52.114;11.674;2023-02-15T11:33:43;18.43;;;10.60;;
60730;SDS011;46580;52.114;11.674;2023-02-15T11:36:18;17.60;;;10.23;;
60730;SDS011;46580;52.114;11.674;2023-02-15T11:38:47;18.67;;;11.20;;
60730;SDS011;46580;52.114;11.674;2023-02-15T11:41:18;17.70;;;11.10;;
60730;SDS011;46580;52.114;11.674;2023-02-15T11:43:54;16.87;;;10.60;;
60730;SDS011;46580;52.114;11.674;2023-02-15T11:46:25;17.77;;;11.60;;
60730;SDS011;46580;52.114;11.674;2023-02-15T11:48:52;16.77;;;10.67;;
60730;SDS011;46580;52.114;11.674;2023-02-15T11:51:18;17.83;;;11.27;;
60730;SDS011;46580;52.114;11.674;2023-02-15T11:53:46;18.60;;;10.90;;
60730;SDS011;46580;52.114;11.674;2023-02-15T11:56:16;14.80;;;9.90;;
60730;SDS011;46580;52.114;11.674;2023-02-15T11:58:52;18.03;;;10.83;;
60730;SDS011;46580;52.114;11.674;2023-02-15T12:01:27;18.93;;;10.33;;
60730;SDS011;46580;52.114;11.674;2023-02-15T12:06:32;20.40;;;11.73;;
60730;SDS011;46580;52.114;11.674;2023-02-15T12:11:36;16.50;;;10.83;;
60730;SDS011;46580;52.114;11.674;2023-02-15T12:14:04;16.73;;;11.13;;
60730;SDS011;46580;52.114;11.674;2023-02-15T12:16:34;14.87;;;9.50;;
60730;SDS011;46580;52.114;11.674;2023-02-15T12:19:10;14.63;;;9.47;;
60730;SDS011;46580;52.114;11.674;2023-02-15T12:21:44;15.73;;;9.47;;
60730;SDS011;46580;52.114;11.674;2023-02-15T12:24:17;14.03;;;8.90;;
60730;SDS011;46580;52.114;11.674;2023-02-15T12:27:05;13.27;;;8.37;;
60730;SDS011;46580;52.114;11.674;2023-02-15T12:29:40;13.30;;;8.87;;
60730;SDS011;46580;52.114;11.674;2023-02-15T12:32:30;14.67;;;9.50;;
60730;SDS011;46580;52.114;11.674;2023-02-15T12:34:59;14.40;;;8.97;;
60730;SDS011;46580;52.114;11.674;2023-02-15T12:37:28;12.23;;;8.60;;
60730;SDS011;46580;52.114;11.674;2023-02-15T12:40:00;10.10;;;7.13;;
60730;SDS011;46580;52.114;11.674;2023-02-15T12:42:43;12.97;;;8.10;;
60730;SDS011;46580;52.114;11.674;2023-02-15T12:45:20;9.30;;;7.03;;
60730;SDS011;46580;52.114;11.674;2023-02-15T12:47:46;11.00;;;7.70;;
60730;SDS011;46580;52.114;11.674;2023-02-15T12:50:32;11.80;;;8.37;;
60730;SDS011;46580;52.114;11.674;2023-02-15T12:53:33;9.77;;;7.33;;
60730;SDS011;46580;52.114;11.674;2023-02-15T12:55:59;10.23;;;6.60;;
60730;SDS011;46580;52.114;11.674;2023-02-15T12:58:30;9.87;;;6.77;;
60730;SDS011;46580;52.114;11.674;2023-02-15T13:01:17;10.80;;;7.70;;
60730;SDS011;46580;52.114;11.674;2023-02-15T13:03:57;9.90;;;7.27;;
60730;SDS011;46580;52.114;11.674;2023-02-15T13:06:31;8.67;;;6.67;;
60730;SDS011;46580;52.114;11.674;2023-02-15T13:09:25;9.60;;;6.93;;
60730;SDS011;46580;52.114;11.674;2023-02-15T13:14:51;10.63;;;6.83;;
60730;SDS011;46580;52.114;11.674;2023-02-15T13:17:26;9.93;;;7.10;;
60730;SDS011;46580;52.114;11.674;2023-02-15T13:19:57;10.30;;;7.37;;
60730;SDS011;46580;52.114;11.674;2023-02-15T13:22:40;11.07;;;7.17;;
60730;SDS011;46580;52.114;11.674;2023-02-15T13:25:11;9.40;;;6.60;;
60730;SDS011;46580;52.114;11.674;2023-02-15T13:27:46;9.70;;;7.10;;
60730;SDS011;46580;52.114;11.674;2023-02-15T13:30:28;8.17;;;6.70;;
60730;SDS011;46580;52.114;11.674;2023-02-15T13:33:02;8.77;;;6.77;;
60730;SDS011;46580;52.114;11.674;2023-02-15T13:35:34;9.27;;;6.60;;
60730;SDS011;46580;52.114;11.674;2023-02-15T13:38:31;9.40;;;6.23;;
60730;SDS011;46580;52.114;11.674;2023-02-15T13:41:23;9.83;;;6.90;;
60730;SDS011;46580;52.114;11.674;2023-02-15T13:49:50;9.33;;;6.67;;
60730;SDS011;46580;52.114;11.674;2023-02-15T13:52:26;7.83;;;6.27;;
60730;SDS011;46580;52.114;11.674;2023-02-15T13:57:27;9.83;;;6.13;;
60730;SDS011;46580;52.114;11.674;2023-02-15T14:00:09;9.77;;;6.67;;
60730;SDS011;46580;52.114;11.674;2023-02-15T14:03:05;8.60;;;6.50;;
60730;SDS011;46580;52.114;11.674;2023-02-15T14:22:45;10.13;;;6.70;;
60730;SDS011;46580;52.114;11.674;2023-02-15T14:30:53;7.83;;;6.27;;
60730;SDS011;46580;52.114;11.674;2023-02-15T14:33:33;9.40;;;6.83;;
60730;SDS011;46580;52.114;11.674;2023-02-15T14:36:03;10.17;;;7.10;;
60730;SDS011;46580;52.114;11.674;2023-02-15T14:41:29;9.03;;;7.13;;
60730;SDS011;46580;52.114;11.674;2023-02-15T14:47:10;9.47;;;6.83;;
60730;SDS011;46580;52.114;11.674;2023-02-15T14:49:58;10.37;;;6.83;;
60730;SDS011;46580;52.114;11.674;2023-02-15T14:52:24;9.70;;;7.10;;
60730;SDS011;46580;52.114;11.674;2023-02-15T14:54:55;12.63;;;7.83;;
60730;SDS011;46580;52.114;11.674;2023-02-15T14:57:21;8.33;;;6.63;;
60730;SDS011;46580;52.114;11.674;2023-02-15T15:02:21;10.07;;;7.43;;
60730;SDS011;46580;52.114;11.674;2023-02-15T15:04:58;11.60;;;6.83;;
60730;SDS011;46580;52.114;11.674;2023-02-15T15:07:28;11.83;;;7.00;;
60730;SDS011;46580;52.114;11.674;2023-02-15T15:17:55;10.00;;;7.73;;
60730;SDS011;46580;52.114;11.674;2023-02-15T15:25:47;12.57;;;7.67;;
60730;SDS011;46580;52.114;11.674;2023-02-15T15:42:54;10.60;;;7.67;;
60730;SDS011;46580;52.114;11.674;2023-02-15T15:51:12;13.63;;;8.50;;
60730;SDS011;46580;52.114;11.674;2023-02-15T15:53:45;11.20;;;8.27;;
60730;SDS011;46580;52.114;11.674;2023-02-15T15:56:17;10.60;;;7.93;;
60730;SDS011;46580;52.114;11.674;2023-02-15T15:58:50;12.83;;;8.47;;
60730;SDS011;46580;52.114;11.674;2023-02-15T16:01:24;11.23;;;8.07;;
60730;SDS011;46580;52.114;11.674;2023-02-15T16:03:52;14.57;;;8.90;;
60730;SDS011;46580;52.114;11.674;2023-02-15T16:08:56;11.50;;;8.67;;
60730;SDS011;46580;52.114;11.674;2023-02-15T16:11:24;12.43;;;9.13;;
60730;SDS011;46580;52.114;11.674;2023-02-15T16:13:52;13.40;;;10.20;;
60730;SDS011;46580;52.114;11.674;2023-02-15T16:16:22;12.60;;;9.40;;
60730;SDS011;46580;52.114;11.674;2023-02-15T16:18:50;13.47;;;9.03;;
60730;SDS011;46580;52.114;11.674;2023-02-15T16:21:18;12.60;;;8.20;;
60730;SDS011;46580;52.114;11.674;2023-02-15T16:27:11;16.50;;;9.80;;
60730;SDS011;46580;52.114;11.674;2023-02-15T16:29:41;14.77;;;9.50;;
60730;SDS011;46580;52.114;11.674;2023-02-15T16:32:19;13.57;;;9.50;;
60730;SDS011;46580;52.114;11.674;2023-02-15T16:34:53;13.90;;;9.67;;
60730;SDS011;46580;52.114;11.674;2023-02-15T16:37:21;14.10;;;10.20;;
60730;SDS011;46580;52.114;11.674;2023-02-15T16:39:48;18.27;;;10.43;;
60730;SDS011;46580;52.114;11.674;2023-02-15T16:42:15;13.07;;;9.27;;
60730;SDS011;46580;52.114;11.674;2023-02-15T16:44:42;13.80;;;9.57;;
60730;SDS011;46580;52.114;11.674;2023-02-15T16:47:17;16.77;;;9.77;;
60730;SDS011;46580;52.114;11.674;2023-02-15T16:49:49;16.53;;;9.70;;
60730;SDS011;46580;52.114;11.674;2023-02-15T16:52:24;19.37;;;11.07;;
60730;SDS011;46580;52.114;11.674;2023-02-15T16:54:53;15.80;;;10.20;;
60730;SDS011;46580;52.114;11.674;2023-02-15T16:57:23;16.00;;;10.83;;
60730;SDS011;46580;52.114;11.674;2023-02-15T16:59:52;18.33;;;10.80;;
60730;SDS011;46580;52.114;11.674;2023-02-15T17:02:21;20.30;;;11.03;;
60730;SDS011;46580;52.114;11.674;2023-02-15T17:10:40;17.90;;;10.97;;
60730;SDS011;46580;52.114;11.674;2023-02-15T17:13:14;17.07;;;10.77;;
60730;SDS011;46580;52.114;11.674;2023-02-15T17:15:41;21.93;;;11.53;;
60730;SDS011;46580;52.114;11.674;2023-02-15T17:18:23;20.67;;;11.23;;
60730;SDS011;46580;52.114;11.674;2023-02-15T17:20:50;20.03;;;11.67;;
60730;SDS011;46580;52.114;11.674;2023-02-15T17:23:25;18.40;;;11.37;;
60730;SDS011;46580;52.114;11.674;2023-02-15T17:25:54;21.77;;;11.90;;
60730;SDS011;46580;52.114;11.674;2023-02-15T17:28:22;21.63;;;11.93;;
60730;SDS011;46580;52.114;11.674;2023-02-15T17:30:53;18.90;;;12.03;;
60730;SDS011;46580;52.114;11.674;2023-02-15T17:38:33;20.23;;;12.10;;
60730;SDS011;46580;52.114;11.674;2023-02-15T17:40:59;22.80;;;13.83;;
60730;SDS011;46580;52.114;11.674;2023-02-15T17:43:25;25.30;;;15.20;;
60730;SDS011;46580;52.114;11.674;2023-02-15T17:45:50;27.57;;;14.97;;